Time;durP1;ratioP1;P1;durP2;ratioP2;P2;SDS_P1;SDS_P2;PMS_P1;PMS_P2;Temp;Humidity;BMP_temperature;BMP_pressure;BME280_temperature;BME280_humidity;BME280_pressure;Samples;Min_cycle;Max_cycle;Signal;HPM_P1;HPM_P2
2021/08/31 00:02:05;;;;;;;3.88;1.75;;;13.30;99.90;;;;;;5012513;28;20030;-83
2021/08/31 00:04:31;;;;;;;3.30;2.13;;;13.30;99.90;;;;;;5014041;28;20435;-82
2021/08/31 00:06:57;;;;;;;2.30;2.10;;;13.40;99.90;;;;;;4992108;28;20303;-82
2021/08/31 00:09:24;;;;;;;2.65;2.00;;;13.30;99.90;;;;;;4998695;28;20377;-82
2021/08/31 00:11:50;;;;;;;3.50;2.00;;;13.30;99.90;;;;;;5034067;28;20056;-83
2021/08/31 00:14:17;;;;;;;3.00;2.30;;;13.30;99.90;;;;;;5018308;28;20037;-83
2021/08/31 00:16:44;;;;;;;4.90;2.03;;;13.30;99.90;;;;;;5018619;28;20555;-82
2021/08/31 00:19:09;;;;;;;2.67;2.00;;;13.30;99.90;;;;;;5037940;28;20171;-82
2021/08/31 00:21:35;;;;;;;14.55;2.35;;;13.30;99.90;;;;;;5001295;28;20123;-82
2021/08/31 00:24:01;;;;;;;1.95;1.83;;;13.30;99.90;;;;;;5014361;28;20038;-83
2021/08/31 00:26:27;;;;;;;4.53;2.33;;;13.30;99.90;;;;;;5020635;28;20033;-83
2021/08/31 00:28:52;;;;;;;2.70;2.17;;;13.30;99.90;;;;;;4998154;28;20423;-86
2021/08/31 00:31:18;;;;;;;2.97;2.67;;;13.30;99.90;;;;;;5015931;28;20072;-84
2021/08/31 00:33:44;;;;;;;3.05;2.60;;;13.30;99.90;;;;;;5014925;28;20091;-82
2021/08/31 00:36:09;;;;;;;4.30;2.33;;;13.30;99.90;;;;;;5048042;28;20032;-82
2021/08/31 00:38:35;;;;;;;4.53;2.53;;;13.30;99.90;;;;;;5035971;28;20028;-82
2021/08/31 00:41:01;;;;;;;3.03;2.38;;;13.30;99.90;;;;;;5012429;28;20041;-83
2021/08/31 00:43:27;;;;;;;5.18;2.72;;;13.30;99.90;;;;;;5022607;28;20030;-82
2021/08/31 00:45:55;;;;;;;2.95;2.30;;;13.30;99.90;;;;;;5032622;28;20035;-83
2021/08/31 00:48:38;;;;;;;3.38;2.72;;;13.30;99.90;;;;;;5035786;28;20021;-83
2021/08/31 00:51:03;;;;;;;3.58;2.92;;;13.30;99.90;;;;;;5017523;28;20076;-82
2021/08/31 00:53:29;;;;;;;3.65;2.20;;;13.30;99.90;;;;;;4998211;28;20034;-83
2021/08/31 00:55:55;;;;;;;3.75;2.60;;;13.30;99.90;;;;;;5017033;28;20029;-84
2021/08/31 00:58:20;;;;;;;3.92;3.00;;;13.30;99.90;;;;;;4984730;28;20033;-82
2021/08/31 01:00:50;;;;;;;5.03;3.00;;;13.20;99.90;;;;;;5002819;28;20126;-82
2021/08/31 01:03:16;;;;;;;3.92;2.70;;;13.30;99.90;;;;;;5017802;28;20028;-83
2021/08/31 01:05:42;;;;;;;3.75;2.80;;;13.30;99.90;;;;;;5021891;28;20387;-84
2021/08/31 01:08:15;;;;;;;3.33;2.80;;;13.30;99.90;;;;;;5009232;28;20039;-83
2021/08/31 01:10:43;;;;;;;3.40;2.78;;;13.30;99.90;;;;;;5017497;28;20529;-83
2021/08/31 01:13:09;;;;;;;3.67;2.88;;;13.30;99.90;;;;;;5034225;28;20043;-82
2021/08/31 01:15:35;;;;;;;3.25;2.95;;;13.30;99.90;;;;;;5019580;28;20111;-82
2021/08/31 01:18:20;;;;;;;6.35;3.30;;;13.30;99.90;;;;;;5004251;28;20033;-82
2021/08/31 01:20:48;;;;;;;5.07;3.60;;;13.30;99.90;;;;;;4998377;28;20041;-83
2021/08/31 01:23:15;;;;;;;3.53;2.83;;;13.30;99.90;;;;;;5032372;28;20447;-83
2021/08/31 01:25:42;;;;;;;3.33;3.03;;;13.30;99.90;;;;;;5029723;28;20063;-82
2021/08/31 01:28:13;;;;;;;4.47;3.20;;;13.30;99.90;;;;;;5017538;28;20034;-83
2021/08/31 01:30:39;;;;;;;3.65;3.13;;;13.30;99.90;;;;;;5029776;28;20490;-82
2021/08/31 01:33:04;;;;;;;4.10;3.20;;;13.30;99.90;;;;;;5003450;28;20059;-82
2021/08/31 01:35:30;;;;;;;3.90;3.17;;;13.30;99.90;;;;;;5007692;28;20049;-83
2021/08/31 01:37:56;;;;;;;3.47;2.85;;;13.30;99.90;;;;;;5031040;28;20034;-82
2021/08/31 01:40:21;;;;;;;4.05;3.38;;;13.30;99.90;;;;;;5017320;28;20036;-83
2021/08/31 01:42:47;;;;;;;5.03;3.70;;;13.30;99.90;;;;;;4994249;28;20044;-83
2021/08/31 01:45:13;;;;;;;4.90;3.78;;;13.30;99.90;;;;;;5011913;28;20040;-83
2021/08/31 01:47:39;;;;;;;4.63;3.63;;;13.30;99.90;;;;;;5010306;28;20029;-83
2021/08/31 01:50:05;;;;;;;4.97;3.67;;;13.30;99.90;;;;;;4991841;28;20175;-83
2021/08/31 01:52:30;;;;;;;5.13;3.72;;;13.30;99.90;;;;;;5007713;28;20033;-83
2021/08/31 01:54:56;;;;;;;4.95;3.85;;;13.30;99.90;;;;;;4999974;28;20032;-82
2021/08/31 01:57:22;;;;;;;9.27;3.97;;;13.30;99.90;;;;;;5012094;28;20032;-83
2021/08/31 01:59:47;;;;;;;7.85;4.45;;;13.20;99.90;;;;;;4991159;28;20057;-82
2021/08/31 02:02:13;;;;;;;6.60;4.80;;;13.20;99.90;;;;;;4991644;28;20045;-82
2021/08/31 02:04:39;;;;;;;5.05;4.20;;;13.20;99.90;;;;;;4999827;28;20029;-82
2021/08/31 02:07:04;;;;;;;6.07;3.75;;;13.20;99.90;;;;;;5017622;28;20436;-83
2021/08/31 02:09:30;;;;;;;25.90;4.88;;;13.20;99.90;;;;;;5004803;28;20449;-83
2021/08/31 02:11:56;;;;;;;5.72;4.35;;;13.30;99.90;;;;;;4990151;28;20036;-83
2021/08/31 02:14:24;;;;;;;8.13;5.20;;;13.30;99.90;;;;;;5016113;28;20064;-82
2021/08/31 02:16:53;;;;;;;6.75;4.95;;;13.20;99.90;;;;;;5029334;28;20037;-83
2021/08/31 02:19:32;;;;;;;;;;;;;;;;;;;;;
2021/08/31 02:21:58;;;;;;;7.00;4.53;;;13.20;99.90;;;;;;5010209;28;20044;-82
2021/08/31 02:24:26;;;;;;;6.00;4.63;;;13.20;99.90;;;;;;4998048;28;20377;-82
2021/08/31 02:26:52;;;;;;;8.70;5.47;;;13.20;99.90;;;;;;5018913;28;20053;-82
2021/08/31 02:29:19;;;;;;;8.68;5.35;;;13.20;99.90;;;;;;5017079;28;20105;-82
2021/08/31 02:31:51;;;;;;;9.93;5.57;;;13.20;99.90;;;;;;5003594;28;20110;-83
2021/08/31 02:34:22;;;;;;;6.60;4.75;;;13.20;99.90;;;;;;5006644;28;20033;-84
2021/08/31 02:36:48;;;;;;;7.22;5.43;;;13.20;99.90;;;;;;5012289;28;20039;-83
2021/08/31 02:39:14;;;;;;;9.55;5.10;;;13.20;99.90;;;;;;5001548;28;20033;-82
2021/08/31 02:41:40;;;;;;;10.07;5.65;;;13.20;99.90;;;;;;5007551;28;20029;-83
2021/08/31 02:44:05;;;;;;;9.80;6.30;;;13.20;99.90;;;;;;5033276;28;20032;-83
2021/08/31 02:46:31;;;;;;;10.73;6.28;;;13.20;99.90;;;;;;5043437;28;20394;-82
2021/08/31 02:48:57;;;;;;;8.10;5.18;;;13.10;99.90;;;;;;5044491;28;20017;-82
2021/08/31 02:51:22;;;;;;;9.38;6.35;;;13.10;99.90;;;;;;5054431;28;20025;-82
2021/08/31 02:53:48;;;;;;;9.55;6.75;;;13.10;99.90;;;;;;5001504;28;20037;-81
2021/08/31 02:56:13;;;;;;;8.40;6.10;;;13.10;99.90;;;;;;5008767;28;20067;-82
2021/08/31 02:58:40;;;;;;;8.52;6.00;;;13.10;99.90;;;;;;4997631;28;20029;-82
2021/08/31 03:01:28;;;;;;;7.97;5.78;;;13.10;99.90;;;;;;5030593;28;20182;-82
2021/08/31 03:03:52;;;;;;;9.30;6.57;;;13.10;99.90;;;;;;5021154;28;20060;-83
2021/08/31 03:06:17;;;;;;;9.80;6.22;;;13.10;99.90;;;;;;5016823;28;20028;-84
2021/08/31 03:08:43;;;;;;;11.65;6.38;;;13.10;99.90;;;;;;5014539;28;20087;-83
2021/08/31 03:11:09;;;;;;;11.95;6.07;;;13.10;99.90;;;;;;5016280;28;20096;-84
2021/08/31 03:13:34;;;;;;;9.40;6.28;;;13.10;99.90;;;;;;5037458;28;20117;-85
2021/08/31 03:16:00;;;;;;;10.75;6.40;;;13.10;99.90;;;;;;5020326;28;20033;-84
2021/08/31 03:18:26;;;;;;;12.43;5.95;;;13.10;99.90;;;;;;5050626;28;20025;-84
2021/08/31 03:20:53;;;;;;;9.23;6.18;;;13.10;99.90;;;;;;5031580;28;20033;-84
2021/08/31 03:23:19;;;;;;;9.07;6.13;;;13.10;99.90;;;;;;5032539;28;20029;-85
2021/08/31 03:25:44;;;;;;;8.30;6.05;;;13.10;99.90;;;;;;5034035;28;20025;-84
2021/08/31 03:28:11;;;;;;;15.73;6.35;;;13.10;99.90;;;;;;5021604;28;20029;-84
2021/08/31 03:30:36;;;;;;;8.88;5.65;;;13.10;99.90;;;;;;5037402;28;20029;-84
2021/08/31 03:33:02;;;;;;;12.63;6.32;;;13.10;99.90;;;;;;5006157;28;20033;-84
2021/08/31 03:35:28;;;;;;;9.27;6.13;;;13.00;99.90;;;;;;5022592;28;20105;-84
2021/08/31 03:37:54;;;;;;;7.95;5.43;;;13.00;99.90;;;;;;5023637;28;20120;-84
2021/08/31 03:40:20;;;;;;;8.82;6.13;;;13.10;99.90;;;;;;4998448;28;20503;-83
2021/08/31 03:42:47;;;;;;;16.73;6.32;;;13.00;99.90;;;;;;5012810;28;20438;-84
2021/08/31 03:45:14;;;;;;;8.07;5.72;;;13.00;99.90;;;;;;5015958;28;20030;-84
2021/08/31 03:47:40;;;;;;;12.18;5.63;;;13.00;99.90;;;;;;5019469;28;20491;-84
2021/08/31 03:50:09;;;;;;;7.60;5.10;;;13.00;99.90;;;;;;5010984;28;20061;-84
2021/08/31 03:52:35;;;;;;;7.25;4.88;;;13.00;99.90;;;;;;5020875;28;20053;-83
2021/08/31 03:55:01;;;;;;;7.15;4.90;;;13.00;99.90;;;;;;5018179;28;20041;-83
2021/08/31 03:57:27;;;;;;;8.02;5.15;;;13.00;99.90;;;;;;5036449;28;20077;-83
2021/08/31 03:59:52;;;;;;;6.03;4.65;;;13.00;99.90;;;;;;5008485;28;20116;-83
2021/08/31 04:02:21;;;;;;;7.22;4.97;;;13.00;99.90;;;;;;5004168;28;20038;-84
2021/08/31 04:04:47;;;;;;;7.28;4.85;;;13.00;99.90;;;;;;4998658;28;20036;-83
2021/08/31 04:07:12;;;;;;;6.97;5.13;;;13.00;99.90;;;;;;5027440;28;20017;-84
2021/08/31 04:09:38;;;;;;;7.28;4.97;;;13.00;99.90;;;;;;5062562;28;20043;-84
2021/08/31 04:12:05;;;;;;;8.50;5.05;;;13.00;99.90;;;;;;5021209;28;20029;-84
2021/08/31 04:14:31;;;;;;;5.90;4.25;;;12.90;99.90;;;;;;5021118;28;20076;-83
2021/08/31 04:16:57;;;;;;;7.32;5.10;;;12.90;99.90;;;;;;5012027;28;20542;-84
2021/08/31 04:19:22;;;;;;;5.95;4.38;;;12.90;99.90;;;;;;5019689;28;20067;-83
2021/08/31 04:21:48;;;;;;;6.25;4.10;;;13.00;99.90;;;;;;5000870;28;20040;-84
2021/08/31 04:24:14;;;;;;;6.65;4.80;;;12.90;99.90;;;;;;5003310;28;20061;-84
2021/08/31 04:26:48;;;;;;;6.30;4.82;;;12.90;99.90;;;;;;4989327;28;20037;-83
2021/08/31 04:29:19;;;;;;;6.40;4.00;;;12.90;99.90;;;;;;5018893;28;20057;-84
2021/08/31 04:31:44;;;;;;;5.15;3.97;;;12.90;99.90;;;;;;5017109;28;20033;-85
2021/08/31 04:34:10;;;;;;;29.40;4.30;;;12.90;99.90;;;;;;5036732;28;20025;-85
2021/08/31 04:36:36;;;;;;;6.40;4.38;;;12.90;99.90;;;;;;5022797;28;20244;-84
2021/08/31 04:39:02;;;;;;;6.65;4.22;;;12.90;99.90;;;;;;5015762;28;20037;-83
2021/08/31 04:41:27;;;;;;;6.53;4.15;;;13.00;99.90;;;;;;5005857;28;20495;-84
2021/08/31 04:43:53;;;;;;;5.65;4.53;;;12.90;99.90;;;;;;5013569;28;20034;-84
2021/08/31 04:46:20;;;;;;;6.47;4.75;;;12.90;99.90;;;;;;5009932;28;20164;-85
2021/08/31 04:48:45;;;;;;;7.95;4.15;;;13.00;99.90;;;;;;5003314;28;20024;-84
2021/08/31 04:51:11;;;;;;;6.35;4.60;;;12.90;99.90;;;;;;4993166;28;20034;-84
2021/08/31 04:53:37;;;;;;;7.28;4.90;;;12.90;99.90;;;;;;5012153;28;20519;-82
2021/08/31 04:56:03;;;;;;;7.95;4.45;;;13.00;99.90;;;;;;5004705;28;20057;-82
2021/08/31 04:58:28;;;;;;;13.15;5.03;;;13.00;99.90;;;;;;5009866;28;20492;-83
2021/08/31 05:00:54;;;;;;;12.73;4.88;;;13.00;99.90;;;;;;5012147;28;20044;-83
2021/08/31 05:03:20;;;;;;;7.97;4.88;;;12.90;99.90;;;;;;5008961;28;20040;-82
2021/08/31 05:05:45;;;;;;;5.57;4.10;;;12.90;99.90;;;;;;4996584;28;20053;-82
2021/08/31 05:08:11;;;;;;;7.72;5.35;;;13.00;99.90;;;;;;5009304;28;20029;-84
2021/08/31 05:10:37;;;;;;;9.40;5.78;;;13.00;99.90;;;;;;5002869;28;20036;-85
2021/08/31 05:13:03;;;;;;;18.13;5.15;;;13.00;99.90;;;;;;5023545;28;20033;-84
2021/08/31 05:15:28;;;;;;;6.47;4.72;;;13.00;99.90;;;;;;5015981;28;20487;-83
2021/08/31 05:17:55;;;;;;;12.52;5.57;;;13.00;99.90;;;;;;5029196;28;20049;-84
2021/08/31 05:20:22;;;;;;;8.73;5.72;;;13.00;99.90;;;;;;5027288;28;20503;-83
2021/08/31 05:22:50;;;;;;;9.65;5.18;;;13.00;99.90;;;;;;5016509;28;20075;-82
2021/08/31 05:25:15;;;;;;;8.90;5.88;;;13.00;99.90;;;;;;5011446;28;20491;-84
2021/08/31 05:27:41;;;;;;;7.28;5.70;;;13.00;99.90;;;;;;5047632;28;20029;-83
2021/08/31 05:30:07;;;;;;;9.48;5.70;;;13.00;99.90;;;;;;5021260;28;20036;-84
2021/08/31 05:32:33;;;;;;;8.23;5.57;;;13.00;99.90;;;;;;5019522;28;20028;-83
2021/08/31 05:34:59;;;;;;;7.70;5.53;;;13.00;99.90;;;;;;4988817;28;20516;-84
2021/08/31 05:37:24;;;;;;;7.15;5.22;;;13.00;99.90;;;;;;5014790;28;20434;-84
2021/08/31 05:39:50;;;;;;;7.85;5.53;;;13.00;99.90;;;;;;5010846;28;20541;-84
2021/08/31 05:42:16;;;;;;;8.15;5.50;;;13.00;99.90;;;;;;5015491;28;20118;-84
2021/08/31 05:44:41;;;;;;;7.43;5.93;;;13.00;99.90;;;;;;4986232;28;20044;-84
2021/08/31 05:47:07;;;;;;;7.82;5.22;;;12.90;99.90;;;;;;4988052;28;20037;-84
2021/08/31 05:49:33;;;;;;;6.88;5.43;;;12.90;99.90;;;;;;5015859;28;20029;-84
2021/08/31 05:52:00;;;;;;;8.60;5.35;;;12.90;99.90;;;;;;4993819;28;20036;-84
2021/08/31 05:54:26;;;;;;;7.60;5.95;;;12.90;99.90;;;;;;5013078;28;20029;-83
2021/08/31 05:56:55;;;;;;;7.57;5.57;;;12.90;99.90;;;;;;5013629;28;20059;-84
2021/08/31 05:59:21;;;;;;;8.20;5.78;;;12.90;99.90;;;;;;5035168;28;20021;-84
2021/08/31 06:01:46;;;;;;;5.40;4.50;;;12.90;99.90;;;;;;5014416;28;20028;-84
2021/08/31 06:04:13;;;;;;;6.97;5.30;;;12.90;99.90;;;;;;5014216;28;20039;-83
2021/08/31 06:06:38;;;;;;;7.57;5.18;;;12.90;99.90;;;;;;5044609;28;20046;-83
2021/08/31 06:09:07;;;;;;;6.13;4.97;;;13.00;99.90;;;;;;5028973;28;20046;-84
2021/08/31 06:11:40;;;;;;;8.13;5.45;;;13.00;99.90;;;;;;5027727;28;20036;-83
2021/08/31 06:14:09;;;;;;;7.25;5.35;;;13.00;99.90;;;;;;5025950;28;20037;-83
2021/08/31 06:16:35;;;;;;;6.95;5.40;;;13.00;99.90;;;;;;5025442;28;20047;-82
2021/08/31 06:19:01;;;;;;;8.02;5.63;;;13.00;99.90;;;;;;5019497;28;20037;-83
2021/08/31 06:21:27;;;;;;;6.88;5.55;;;13.00;99.90;;;;;;5014588;28;20507;-82
2021/08/31 06:23:53;;;;;;;8.52;5.57;;;13.00;99.90;;;;;;5040128;28;20029;-83
2021/08/31 06:26:19;;;;;;;7.63;5.90;;;13.00;99.90;;;;;;5039833;28;20040;-83
2021/08/31 06:28:45;;;;;;;9.70;5.95;;;13.00;99.90;;;;;;5035425;28;20037;-84
2021/08/31 06:31:11;;;;;;;8.05;6.15;;;13.00;99.90;;;;;;5023714;28;20041;-83
2021/08/31 06:33:36;;;;;;;8.20;6.00;;;13.00;99.90;;;;;;5026679;28;20034;-84
2021/08/31 06:36:02;;;;;;;9.43;5.60;;;13.10;99.90;;;;;;5005542;28;20084;-83
2021/08/31 06:38:28;;;;;;;8.27;5.47;;;13.10;99.90;;;;;;5037103;28;20445;-82
2021/08/31 06:40:54;;;;;;;6.85;5.55;;;13.10;99.90;;;;;;5035279;28;20029;-84
2021/08/31 06:43:20;;;;;;;6.40;4.93;;;13.20;99.90;;;;;;5002798;28;20029;-84
2021/08/31 06:45:45;;;;;;;11.35;5.25;;;13.20;99.90;;;;;;5026688;28;20031;-84
2021/08/31 06:48:11;;;;;;;8.02;5.50;;;13.20;99.90;;;;;;5023476;28;20541;-83
2021/08/31 06:50:37;;;;;;;7.43;4.43;;;13.20;99.90;;;;;;5025237;28;20087;-83
2021/08/31 06:53:03;;;;;;;6.88;5.03;;;13.20;99.90;;;;;;5021939;28;20025;-84
2021/08/31 06:55:28;;;;;;;6.22;4.70;;;13.30;99.90;;;;;;5002995;28;20565;-84
2021/08/31 06:57:54;;;;;;;7.82;4.90;;;13.20;99.90;;;;;;5038540;28;20052;-83
2021/08/31 07:00:20;;;;;;;8.55;5.40;;;13.20;99.90;;;;;;5037450;28;20059;-83
2021/08/31 07:02:46;;;;;;;7.30;5.35;;;13.30;99.90;;;;;;4997007;28;20031;-82
2021/08/31 07:05:12;;;;;;;8.43;5.47;;;13.30;99.90;;;;;;5002883;28;20037;-82
2021/08/31 07:07:37;;;;;;;8.23;5.70;;;13.30;99.90;;;;;;5012763;28;20029;-83
2021/08/31 07:10:04;;;;;;;8.05;5.50;;;13.30;99.90;;;;;;5025228;28;20058;-83
2021/08/31 07:12:30;;;;;;;8.48;5.38;;;13.20;99.90;;;;;;5037784;28;20032;-82
2021/08/31 07:14:58;;;;;;;6.40;5.00;;;13.30;99.90;;;;;;5038258;28;20025;-83
2021/08/31 07:17:23;;;;;;;8.75;5.28;;;13.30;99.90;;;;;;4999884;28;20479;-83
2021/08/31 07:19:49;;;;;;;8.88;6.63;;;13.30;99.90;;;;;;5020689;28;20037;-81
2021/08/31 07:22:17;;;;;;;8.95;5.40;;;13.30;99.90;;;;;;5001823;28;20067;-82
2021/08/31 07:24:43;;;;;;;9.07;5.80;;;13.40;99.90;;;;;;5010087;28;20498;-82
2021/08/31 07:27:09;;;;;;;8.75;5.97;;;13.50;99.90;;;;;;5030887;28;20064;-81
2021/08/31 07:29:35;;;;;;;8.55;5.75;;;13.50;99.90;;;;;;5035519;28;20056;-82
2021/08/31 07:32:01;;;;;;;9.48;6.03;;;13.60;99.90;;;;;;5008720;28;20034;-82
2021/08/31 07:34:28;;;;;;;8.20;6.30;;;13.70;99.90;;;;;;5037797;28;20029;-82
2021/08/31 07:36:55;;;;;;;9.75;6.10;;;13.80;99.90;;;;;;5035902;28;20028;-82
2021/08/31 07:39:20;;;;;;;13.45;7.10;;;14.00;99.90;;;;;;5042380;28;20446;-81
2021/08/31 07:41:46;;;;;;;23.02;15.10;;;14.20;99.90;;;;;;5003315;28;20208;-82
2021/08/31 07:44:12;;;;;;;10.45;7.25;;;14.50;99.90;;;;;;5025825;28;20111;-83
2021/08/31 07:46:40;;;;;;;11.15;8.05;;;14.90;99.90;;;;;;5032598;28;20406;-81
2021/08/31 07:49:06;;;;;;;9.05;6.15;;;15.20;99.90;;;;;;5006592;28;20873;-82
2021/08/31 07:51:32;;;;;;;7.18;5.13;;;15.50;99.90;;;;;;5019448;28;20033;-81
2021/08/31 07:53:57;;;;;;;7.00;5.10;;;15.60;99.90;;;;;;5036672;28;20032;-81
2021/08/31 07:56:23;;;;;;;8.60;5.47;;;15.60;99.90;;;;;;5026540;28;20036;-81
2021/08/31 07:58:49;;;;;;;5.60;4.68;;;15.60;99.90;;;;;;5019264;28;20021;-82
2021/08/31 08:01:14;;;;;;;6.45;4.68;;;15.60;99.90;;;;;;5018008;28;20515;-83
2021/08/31 08:03:40;;;;;;;8.75;5.93;;;15.50;99.90;;;;;;5000395;28;20930;-82
2021/08/31 08:06:06;;;;;;;6.10;5.10;;;15.50;99.90;;;;;;5033850;28;20029;-82
2021/08/31 08:08:41;;;;;;;6.70;4.85;;;15.40;99.90;;;;;;5035589;28;20511;-82
2021/08/31 08:11:07;;;;;;;6.22;5.28;;;15.40;99.90;;;;;;5027565;28;20450;-82
2021/08/31 08:13:33;;;;;;;6.47;5.10;;;15.30;99.90;;;;;;5035938;28;20037;-80
2021/08/31 08:15:58;;;;;;;7.68;5.40;;;15.30;99.90;;;;;;5033266;28;20113;-82
2021/08/31 08:18:24;;;;;;;7.80;5.35;;;15.30;99.90;;;;;;5015376;28;20029;-81
2021/08/31 08:20:50;;;;;;;7.70;5.30;;;15.30;99.90;;;;;;5017332;28;20032;-82
2021/08/31 08:23:15;;;;;;;7.18;5.07;;;15.20;99.90;;;;;;5035711;28;20375;-82
2021/08/31 08:25:41;;;;;;;7.70;5.15;;;15.20;99.90;;;;;;5050270;28;20029;-83
2021/08/31 08:28:07;;;;;;;5.13;4.45;;;15.10;99.90;;;;;;5032690;28;20025;-80
2021/08/31 08:30:33;;;;;;;8.15;5.63;;;15.00;99.90;;;;;;5013966;28;20038;-81
2021/08/31 08:32:58;;;;;;;6.70;4.70;;;14.80;99.90;;;;;;5031636;28;20025;-81
2021/08/31 08:35:25;;;;;;;6.38;4.80;;;14.70;99.90;;;;;;5016419;28;20507;-81
2021/08/31 08:37:51;;;;;;;6.53;5.05;;;14.60;99.90;;;;;;5017639;28;20033;-80
2021/08/31 08:40:17;;;;;;;7.05;4.45;;;14.60;99.90;;;;;;5017260;28;20036;-81
2021/08/31 08:42:43;;;;;;;7.95;5.40;;;14.50;99.90;;;;;;5000930;28;20032;-81
2021/08/31 08:45:09;;;;;;;5.95;4.40;;;14.50;99.90;;;;;;5014504;28;20033;-80
2021/08/31 08:47:41;;;;;;;8.85;5.57;;;14.40;99.90;;;;;;5045846;28;20928;-81
2021/08/31 08:50:08;;;;;;;6.95;4.93;;;14.40;99.90;;;;;;5044266;28;20036;-81
2021/08/31 08:52:34;;;;;;;8.18;5.28;;;14.40;99.90;;;;;;5038619;28;20025;-81
2021/08/31 08:55:00;;;;;;;6.35;4.82;;;14.40;99.90;;;;;;5040841;28;20029;-81
2021/08/31 08:57:30;;;;;;;8.27;5.30;;;14.40;99.90;;;;;;5020552;28;20039;-82
2021/08/31 08:59:56;;;;;;;8.93;5.15;;;14.50;99.90;;;;;;5034506;28;20124;-81
2021/08/31 09:02:40;;;;;;;7.40;5.60;;;14.50;99.90;;;;;;5038528;28;20029;-81
2021/08/31 09:05:12;;;;;;;6.90;5.15;;;14.50;99.90;;;;;;5036608;28;20131;-81
2021/08/31 09:07:40;;;;;;;7.53;4.72;;;14.40;99.90;;;;;;5015900;28;20034;-81
2021/08/31 09:10:25;;;;;;;6.38;4.70;;;14.40;99.90;;;;;;5041942;28;20107;-81
2021/08/31 09:12:53;;;;;;;7.28;5.50;;;14.30;99.90;;;;;;5032289;28;20203;-81
2021/08/31 09:15:39;;;;;;;6.97;5.13;;;14.30;99.90;;;;;;5029487;28;20047;-82
2021/08/31 09:18:07;;;;;;;7.00;5.25;;;14.40;99.90;;;;;;5037892;28;20091;-82
2021/08/31 09:20:38;;;;;;;7.43;5.10;;;14.40;99.90;;;;;;5040235;28;20036;-82
2021/08/31 09:23:06;;;;;;;7.30;5.43;;;14.40;99.90;;;;;;5053689;28;20033;-82
2021/08/31 09:25:57;;;;;;;6.75;5.50;;;14.50;99.90;;;;;;5024838;28;20045;-82
2021/08/31 09:28:40;;;;;;;6.65;5.30;;;14.50;99.90;;;;;;5023136;28;20037;-82
2021/08/31 09:31:10;;;;;;;7.35;5.18;;;14.60;99.90;;;;;;5019198;28;20539;-82
2021/08/31 09:33:43;;;;;;;7.60;5.40;;;14.70;99.90;;;;;;5049863;28;20094;-83
2021/08/31 09:36:09;;;;;;;8.85;5.75;;;14.90;99.90;;;;;;5063167;28;20094;-82
2021/08/31 09:38:52;;;;;;;7.95;5.55;;;15.00;99.90;;;;;;5044065;28;20033;-83
2021/08/31 09:41:28;;;;;;;8.25;5.40;;;15.10;99.90;;;;;;5039183;28;20029;-82
2021/08/31 09:43:54;;;;;;;8.40;5.53;;;15.20;99.90;;;;;;5030116;28;20582;-82
2021/08/31 09:46:22;;;;;;;8.20;5.40;;;15.30;99.90;;;;;;5061872;28;20120;-83
2021/08/31 09:48:49;;;;;;;6.88;5.50;;;15.30;99.90;;;;;;5028161;28;20041;-83
2021/08/31 09:51:15;;;;;;;9.25;6.68;;;15.30;99.90;;;;;;5034130;28;20037;-83
2021/08/31 09:53:42;;;;;;;8.88;6.22;;;15.40;99.90;;;;;;5043564;28;20020;-85
2021/08/31 09:56:12;;;;;;;9.88;7.32;;;15.40;99.90;;;;;;5031941;28;20032;-82
2021/08/31 09:58:45;;;;;;;8.05;6.03;;;15.40;99.90;;;;;;5011679;28;20034;-82
2021/08/31 10:01:11;;;;;;;10.35;6.78;;;15.40;99.90;;;;;;5038411;28;20429;-82
2021/08/31 10:03:43;;;;;;;7.18;6.05;;;15.50;99.90;;;;;;5033824;28;20064;-83
2021/08/31 10:06:09;;;;;;;9.82;6.80;;;15.50;99.90;;;;;;5029365;28;20036;-83
2021/08/31 10:08:38;;;;;;;8.55;6.30;;;15.50;99.90;;;;;;5035806;28;20040;-82
2021/08/31 10:11:05;;;;;;;10.05;6.40;;;15.50;99.90;;;;;;5052663;28;20035;-83
2021/08/31 10:13:36;;;;;;;8.15;5.85;;;15.50;99.90;;;;;;5044425;28;20087;-82
2021/08/31 10:16:03;;;;;;;6.85;5.72;;;15.40;99.90;;;;;;5026943;28;20056;-83
2021/08/31 10:18:29;;;;;;;7.05;5.35;;;15.40;99.90;;;;;;5035002;28;20029;-82
2021/08/31 10:21:00;;;;;;;10.38;6.15;;;15.30;99.90;;;;;;5046095;28;20439;-82
2021/08/31 10:23:36;;;;;;;12.10;5.80;;;15.20;99.90;;;;;;5011810;28;20044;-82
2021/08/31 10:26:31;;;;;;;9.05;6.07;;;15.20;99.90;;;;;;5046846;28;20152;-83
2021/08/31 10:29:15;;;;;;;8.63;5.63;;;15.10;99.90;;;;;;5025795;28;20079;-82
2021/08/31 10:31:43;;;;;;;5.90;4.85;;;15.10;99.90;;;;;;5043936;28;20422;-82
2021/08/31 10:34:31;;;;;;;6.85;5.47;;;15.00;99.90;;;;;;5035082;28;20025;-83
2021/08/31 10:37:02;;;;;;;7.05;5.10;;;15.00;99.90;;;;;;5029873;28;20030;-82
2021/08/31 10:40:00;;;;;;;6.45;5.18;;;15.00;99.90;;;;;;5024060;28;20112;-83
2021/08/31 10:42:29;;;;;;;8.65;4.72;;;15.00;99.90;;;;;;5013063;28;20041;-82
2021/08/31 10:45:00;;;;;;;8.15;4.75;;;14.90;99.90;;;;;;5050281;28;20044;-82
2021/08/31 10:47:31;;;;;;;7.55;5.22;;;14.90;99.90;;;;;;4988301;28;20084;-82
2021/08/31 10:49:57;;;;;;;6.32;5.18;;;14.90;99.90;;;;;;4995249;28;20041;-84
2021/08/31 10:52:32;;;;;;;7.65;5.20;;;15.00;99.90;;;;;;5040399;28;20033;-82
2021/08/31 10:57:39;;;;;;;9.30;5.43;;;15.20;99.90;;;;;;5871151;23;19922;-83
2021/08/31 11:00:24;;;;;;;6.05;4.72;;;15.40;99.90;;;;;;4999874;28;20027;-82
2021/08/31 11:03:00;;;;;;;8.45;5.50;;;15.70;99.90;;;;;;5000762;28;20053;-82
2021/08/31 11:05:27;;;;;;;10.02;5.95;;;16.00;99.90;;;;;;4981149;28;20674;-83
2021/08/31 11:08:00;;;;;;;5.93;4.65;;;16.20;99.90;;;;;;4994546;28;20118;-82
2021/08/31 11:10:25;;;;;;;5.57;4.40;;;16.50;99.90;;;;;;4969274;28;20069;-83
2021/08/31 11:12:53;;;;;;;5.97;4.60;;;16.70;99.90;;;;;;4999877;28;20049;-83
2021/08/31 11:15:20;;;;;;;5.57;4.25;;;16.80;99.90;;;;;;4989143;28;20057;-83
2021/08/31 11:17:47;;;;;;;5.40;4.00;;;16.80;99.90;;;;;;4977328;28;20041;-82
2021/08/31 11:20:26;;;;;;;6.53;4.82;;;16.80;99.90;;;;;;4999808;28;20034;-83
2021/08/31 11:23:03;;;;;;;5.75;3.80;;;16.80;99.90;;;;;;4996129;28;20045;-82
2021/08/31 11:25:32;;;;;;;4.10;3.70;;;16.90;99.90;;;;;;4999430;28;20466;-82
2021/08/31 11:28:03;;;;;;;6.70;4.13;;;16.90;99.90;;;;;;5002521;28;20041;-83
2021/08/31 11:30:50;;;;;;;5.47;4.00;;;16.90;99.90;;;;;;4964583;28;20039;-82
2021/08/31 11:33:24;;;;;;;7.00;4.13;;;16.80;99.90;;;;;;4986212;28;20392;-83
2021/08/31 11:36:28;;;;;;;5.93;3.58;;;16.80;99.90;;;;;;4978386;28;20473;-83
2021/08/31 11:38:57;;;;;;;6.07;3.45;;;16.70;99.90;;;;;;4993798;28;20113;-82
2021/08/31 11:41:24;;;;;;;5.70;3.83;;;16.60;99.90;;;;;;4992936;28;20104;-83
2021/08/31 11:44:18;;;;;;;5.15;4.20;;;16.60;99.90;;;;;;4978120;28;20161;-83
2021/08/31 11:46:48;;;;;;;5.47;3.60;;;16.80;99.90;;;;;;4977695;28;20489;-83
2021/08/31 11:49:20;;;;;;;7.20;4.25;;;16.90;99.90;;;;;;4949570;28;20034;-83
2021/08/31 11:51:51;;;;;;;5.45;4.05;;;17.00;99.90;;;;;;4989459;28;20069;-83
2021/08/31 11:54:17;;;;;;;9.25;4.50;;;17.10;99.90;;;;;;4992112;28;20495;-83
2021/08/31 11:56:50;;;;;;;6.20;3.55;;;17.20;99.90;;;;;;4960355;28;20033;-83
2021/08/31 11:59:45;;;;;;;4.90;3.85;;;17.40;99.90;;;;;;5003676;28;20029;-83
2021/08/31 12:02:14;;;;;;;6.32;3.65;;;17.60;99.90;;;;;;4999121;28;20611;-83
2021/08/31 12:04:42;;;;;;;6.10;3.53;;;17.80;99.90;;;;;;4992157;28;20374;-83
2021/08/31 12:07:15;;;;;;;4.72;3.72;;;17.80;99.90;;;;;;4972358;28;20038;-84
2021/08/31 12:09:42;;;;;;;4.15;3.35;;;17.80;99.90;;;;;;4981203;28;20034;-83
2021/08/31 12:12:09;;;;;;;3.88;3.50;;;17.90;99.90;;;;;;4950612;28;20590;-83
2021/08/31 12:14:35;;;;;;;4.82;3.53;;;17.90;99.90;;;;;;4979091;28;20115;-83
2021/08/31 12:17:01;;;;;;;5.60;3.90;;;17.90;99.90;;;;;;4977886;28;20477;-83
2021/08/31 12:19:30;;;;;;;5.47;3.60;;;17.80;99.90;;;;;;5004707;28;20026;-83
2021/08/31 12:22:14;;;;;;;5.70;3.90;;;17.70;99.90;;;;;;4980308;28;20116;-83
2021/08/31 12:24:42;;;;;;;4.82;3.70;;;17.60;99.90;;;;;;4952679;28;20044;-83
2021/08/31 12:27:16;;;;;;;4.97;3.58;;;17.50;99.90;;;;;;4982213;28;20035;-85
2021/08/31 12:29:56;;;;;;;4.65;3.60;;;17.20;99.90;;;;;;4998579;28;20030;-84
2021/08/31 12:32:29;;;;;;;6.70;4.07;;;17.10;99.90;;;;;;5006052;28;20033;-84
2021/08/31 12:35:20;;;;;;;5.60;3.70;;;16.90;99.90;;;;;;4974389;28;20034;-84
2021/08/31 12:37:46;;;;;;;5.47;4.13;;;16.80;99.90;;;;;;4972783;28;20038;-84
2021/08/31 12:40:18;;;;;;;5.50;4.10;;;16.70;99.90;;;;;;4982520;28;20030;-83
2021/08/31 12:42:48;;;;;;;5.57;4.10;;;16.60;99.90;;;;;;4978938;28;20045;-84
2021/08/31 12:45:27;;;;;;;8.52;4.25;;;16.60;99.90;;;;;;4993308;28;20038;-84
2021/08/31 12:47:56;;;;;;;5.28;3.97;;;16.60;99.90;;;;;;4975571;28;20031;-84
2021/08/31 12:50:22;;;;;;;8.32;3.83;;;16.70;99.90;;;;;;4947263;28;20042;-84
2021/08/31 12:53:08;;;;;;;5.63;4.20;;;16.70;99.90;;;;;;4963599;28;20035;-84
2021/08/31 12:55:36;;;;;;;5.82;4.20;;;16.70;99.90;;;;;;4975096;28;20050;-84
2021/08/31 12:58:30;;;;;;;6.55;4.35;;;16.80;99.90;;;;;;4982050;28;20038;-84